sensor_id;sensor_type;location;lat;lon;timestamp;temperature;humidity
6581;DHT22;3324;50.796;7.228;2022-07-03T00:01:16;19.10;99.90
6581;DHT22;3324;50.796;7.228;2022-07-03T00:03:42;19.10;99.90
6581;DHT22;3324;50.796;7.228;2022-07-03T00:06:08;19.10;99.90
6581;DHT22;3324;50.796;7.228;2022-07-03T00:08:34;19.10;99.90
6581;DHT22;3324;50.796;7.228;2022-07-03T00:10:59;19.00;99.90
6581;DHT22;3324;50.796;7.228;2022-07-03T00:13:25;19.00;99.90
6581;DHT22;3324;50.796;7.228;2022-07-03T00:15:51;19.00;99.90
6581;DHT22;3324;50.796;7.228;2022-07-03T00:18:16;18.90;99.90
6581;DHT22;3324;50.796;7.228;2022-07-03T00:20:47;18.90;99.90
6581;DHT22;3324;50.796;7.228;2022-07-03T00:23:16;18.80;99.90
6581;DHT22;3324;50.796;7.228;2022-07-03T00:25:43;18.70;99.90
6581;DHT22;3324;50.796;7.228;2022-07-03T00:28:09;18.70;99.90
6581;DHT22;3324;50.796;7.228;2022-07-03T00:30:36;18.60;99.90
6581;DHT22;3324;50.796;7.228;2022-07-03T00:33:03;18.60;99.90
6581;DHT22;3324;50.796;7.228;2022-07-03T00:35:32;18.50;99.90
6581;DHT22;3324;50.796;7.228;2022-07-03T00:37:58;18.50;99.90
6581;DHT22;3324;50.796;7.228;2022-07-03T00:40:24;18.40;99.90
6581;DHT22;3324;50.796;7.228;2022-07-03T00:42:50;18.40;99.90
6581;DHT22;3324;50.796;7.228;2022-07-03T00:45:20;18.30;99.90
6581;DHT22;3324;50.796;7.228;2022-07-03T00:47:46;18.20;99.90
6581;DHT22;3324;50.796;7.228;2022-07-03T00:50:13;18.20;99.90
6581;DHT22;3324;50.796;7.228;2022-07-03T00:52:46;18.20;99.90
6581;DHT22;3324;50.796;7.228;2022-07-03T00:55:16;18.20;99.90
6581;DHT22;3324;50.796;7.228;2022-07-03T00:57:47;18.20;99.90
6581;DHT22;3324;50.796;7.228;2022-07-03T01:00:14;18.20;99.90
6581;DHT22;3324;50.796;7.228;2022-07-03T01:08:03;18.20;99.90
6581;DHT22;3324;50.796;7.228;2022-07-03T01:17:02;18.10;99.90
6581;DHT22;3324;50.796;7.228;2022-07-03T01:19:46;18.10;99.90
6581;DHT22;3324;50.796;7.228;2022-07-03T01:22:29;18.00;99.90
6581;DHT22;3324;50.796;7.228;2022-07-03T01:25:02;18.00;99.90
6581;DHT22;3324;50.796;7.228;2022-07-03T01:27:42;17.90;99.90
6581;DHT22;3324;50.796;7.228;2022-07-03T01:30:12;17.90;99.90
6581;DHT22;3324;50.796;7.228;2022-07-03T01:32:57;17.90;99.90
6581;DHT22;3324;50.796;7.228;2022-07-03T01:35:36;17.80;99.90
6581;DHT22;3324;50.796;7.228;2022-07-03T01:38:04;17.80;99.90
6581;DHT22;3324;50.796;7.228;2022-07-03T01:40:32;17.80;99.90
6581;DHT22;3324;50.796;7.228;2022-07-03T01:42:59;17.70;99.90
6581;DHT22;3324;50.796;7.228;2022-07-03T01:45:27;17.70;99.90
6581;DHT22;3324;50.796;7.228;2022-07-03T01:47:56;17.70;99.90
6581;DHT22;3324;50.796;7.228;2022-07-03T01:50:24;17.60;99.90
6581;DHT22;3324;50.796;7.228;2022-07-03T01:52:52;17.60;99.90
6581;DHT22;3324;50.796;7.228;2022-07-03T01:55:19;17.60;99.90
6581;DHT22;3324;50.796;7.228;2022-07-03T01:57:50;17.50;99.90
6581;DHT22;3324;50.796;7.228;2022-07-03T02:00:20;17.50;99.90
6581;DHT22;3324;50.796;7.228;2022-07-03T02:03:02;17.40;99.90
6581;DHT22;3324;50.796;7.228;2022-07-03T02:08:11;17.20;99.90
6581;DHT22;3324;50.796;7.228;2022-07-03T02:10:40;17.20;99.90
6581;DHT22;3324;50.796;7.228;2022-07-03T02:13:23;17.20;99.90
6581;DHT22;3324;50.796;7.228;2022-07-03T02:15:50;17.20;99.90
6581;DHT22;3324;50.796;7.228;2022-07-03T02:23:30;17.10;99.90
6581;DHT22;3324;50.796;7.228;2022-07-03T02:26:00;17.00;99.90
6581;DHT22;3324;50.796;7.228;2022-07-03T02:31:21;16.90;99.90
6581;DHT22;3324;50.796;7.228;2022-07-03T02:33:51;16.90;99.90
6581;DHT22;3324;50.796;7.228;2022-07-03T02:36:19;16.90;99.90
6581;DHT22;3324;50.796;7.228;2022-07-03T02:38:52;16.80;99.90
6581;DHT22;3324;50.796;7.228;2022-07-03T02:41:42;16.70;99.90
6581;DHT22;3324;50.796;7.228;2022-07-03T02:44:31;16.70;99.90
6581;DHT22;3324;50.796;7.228;2022-07-03T02:47:11;16.70;99.90
6581;DHT22;3324;50.796;7.228;2022-07-03T02:50:02;16.70;99.90
6581;DHT22;3324;50.796;7.228;2022-07-03T02:55:02;16.60;99.90
6581;DHT22;3324;50.796;7.228;2022-07-03T02:57:37;16.60;99.90
6581;DHT22;3324;50.796;7.228;2022-07-03T03:00:05;16.50;99.90
6581;DHT22;3324;50.796;7.228;2022-07-03T03:03:01;16.40;99.90
6581;DHT22;3324;50.796;7.228;2022-07-03T03:05:35;16.40;99.90
6581;DHT22;3324;50.796;7.228;2022-07-03T03:10:35;16.40;99.90
6581;DHT22;3324;50.796;7.228;2022-07-03T03:13:09;16.30;99.90
6581;DHT22;3324;50.796;7.228;2022-07-03T03:15:36;16.40;99.90
6581;DHT22;3324;50.796;7.228;2022-07-03T03:18:05;16.40;99.90
6581;DHT22;3324;50.796;7.228;2022-07-03T03:20:32;16.40;99.90
6581;DHT22;3324;50.796;7.228;2022-07-03T03:23:30;16.30;99.90
6581;DHT22;3324;50.796;7.228;2022-07-03T03:25:59;16.30;99.90
6581;DHT22;3324;50.796;7.228;2022-07-03T03:28:25;16.30;99.90
6581;DHT22;3324;50.796;7.228;2022-07-03T03:30:51;16.30;99.90
6581;DHT22;3324;50.796;7.228;2022-07-03T03:33:17;16.20;99.90
6581;DHT22;3324;50.796;7.228;2022-07-03T03:35:44;16.20;99.90
6581;DHT22;3324;50.796;7.228;2022-07-03T03:38:11;16.20;99.90
6581;DHT22;3324;50.796;7.228;2022-07-03T03:40:37;16.20;99.90
6581;DHT22;3324;50.796;7.228;2022-07-03T03:43:03;16.20;99.90
6581;DHT22;3324;50.796;7.228;2022-07-03T03:45:29;16.20;99.90
6581;DHT22;3324;50.796;7.228;2022-07-03T03:47:55;16.20;99.90
6581;DHT22;3324;50.796;7.228;2022-07-03T03:50:21;16.20;99.90
6581;DHT22;3324;50.796;7.228;2022-07-03T03:52:47;16.20;99.90
6581;DHT22;3324;50.796;7.228;2022-07-03T03:55:13;16.20;99.90
6581;DHT22;3324;50.796;7.228;2022-07-03T03:57:38;16.20;99.90
6581;DHT22;3324;50.796;7.228;2022-07-03T04:00:05;16.20;99.90
6581;DHT22;3324;50.796;7.228;2022-07-03T04:02:31;16.20;99.90
6581;DHT22;3324;50.796;7.228;2022-07-03T04:04:57;16.10;99.90
6581;DHT22;3324;50.796;7.228;2022-07-03T04:07:23;16.20;99.90
6581;DHT22;3324;50.796;7.228;2022-07-03T04:09:49;16.20;99.90
6581;DHT22;3324;50.796;7.228;2022-07-03T04:12:14;16.20;99.90
6581;DHT22;3324;50.796;7.228;2022-07-03T04:14:40;16.20;99.90
6581;DHT22;3324;50.796;7.228;2022-07-03T04:17:06;16.20;99.90
6581;DHT22;3324;50.796;7.228;2022-07-03T04:19:31;16.30;99.90
6581;DHT22;3324;50.796;7.228;2022-07-03T04:21:57;16.30;99.90
6581;DHT22;3324;50.796;7.228;2022-07-03T04:24:23;16.30;99.90
6581;DHT22;3324;50.796;7.228;2022-07-03T04:26:49;16.40;99.90
6581;DHT22;3324;50.796;7.228;2022-07-03T04:29:14;16.40;99.90
6581;DHT22;3324;50.796;7.228;2022-07-03T04:31:40;16.40;99.90
6581;DHT22;3324;50.796;7.228;2022-07-03T04:34:06;16.50;99.90
6581;DHT22;3324;50.796;7.228;2022-07-03T04:36:32;16.50;99.90
6581;DHT22;3324;50.796;7.228;2022-07-03T04:38:58;16.60;99.90
6581;DHT22;3324;50.796;7.228;2022-07-03T04:41:23;16.60;99.90
6581;DHT22;3324;50.796;7.228;2022-07-03T04:43:49;16.70;99.90
6581;DHT22;3324;50.796;7.228;2022-07-03T04:46:15;16.70;99.90
6581;DHT22;3324;50.796;7.228;2022-07-03T04:48:40;16.70;99.90
6581;DHT22;3324;50.796;7.228;2022-07-03T04:51:06;16.70;99.90
6581;DHT22;3324;50.796;7.228;2022-07-03T04:53:32;16.90;99.90
6581;DHT22;3324;50.796;7.228;2022-07-03T04:55:57;16.90;99.90
6581;DHT22;3324;50.796;7.228;2022-07-03T04:58:23;17.10;99.90
6581;DHT22;3324;50.796;7.228;2022-07-03T05:00:49;17.20;99.90
6581;DHT22;3324;50.796;7.228;2022-07-03T05:03:15;17.30;99.90
6581;DHT22;3324;50.796;7.228;2022-07-03T05:05:40;17.40;99.90
6581;DHT22;3324;50.796;7.228;2022-07-03T05:08:06;17.50;99.90
6581;DHT22;3324;50.796;7.228;2022-07-03T05:10:32;17.60;99.90
6581;DHT22;3324;50.796;7.228;2022-07-03T05:12:58;17.60;99.90
6581;DHT22;3324;50.796;7.228;2022-07-03T05:15:23;17.50;99.90
6581;DHT22;3324;50.796;7.228;2022-07-03T05:17:49;17.60;99.90
6581;DHT22;3324;50.796;7.228;2022-07-03T05:20:15;17.60;99.90
6581;DHT22;3324;50.796;7.228;2022-07-03T05:22:50;17.70;99.90
6581;DHT22;3324;50.796;7.228;2022-07-03T05:25:16;17.70;99.90
6581;DHT22;3324;50.796;7.228;2022-07-03T05:27:42;17.80;99.90
6581;DHT22;3324;50.796;7.228;2022-07-03T05:30:08;17.90;99.90
6581;DHT22;3324;50.796;7.228;2022-07-03T05:32:33;18.00;99.90
6581;DHT22;3324;50.796;7.228;2022-07-03T05:34:59;18.10;99.90
6581;DHT22;3324;50.796;7.228;2022-07-03T05:37:25;18.20;99.90
6581;DHT22;3324;50.796;7.228;2022-07-03T05:39:50;18.30;99.90
6581;DHT22;3324;50.796;7.228;2022-07-03T05:42:16;18.50;99.90
6581;DHT22;3324;50.796;7.228;2022-07-03T05:44:42;18.60;99.90
6581;DHT22;3324;50.796;7.228;2022-07-03T05:47:07;18.70;99.90
6581;DHT22;3324;50.796;7.228;2022-07-03T05:49:33;18.80;99.90
6581;DHT22;3324;50.796;7.228;2022-07-03T05:51:58;19.00;99.90
6581;DHT22;3324;50.796;7.228;2022-07-03T05:54:24;19.00;99.90
6581;DHT22;3324;50.796;7.228;2022-07-03T05:56:50;19.20;99.90
6581;DHT22;3324;50.796;7.228;2022-07-03T05:59:15;19.20;99.90
6581;DHT22;3324;50.796;7.228;2022-07-03T06:01:41;19.30;99.90
6581;DHT22;3324;50.796;7.228;2022-07-03T06:04:07;19.40;99.90
6581;DHT22;3324;50.796;7.228;2022-07-03T06:06:32;19.40;99.90
6581;DHT22;3324;50.796;7.228;2022-07-03T06:08:58;19.30;99.90
6581;DHT22;3324;50.796;7.228;2022-07-03T06:11:24;19.30;99.90
6581;DHT22;3324;50.796;7.228;2022-07-03T06:13:49;19.30;99.90
6581;DHT22;3324;50.796;7.228;2022-07-03T06:16:15;19.40;99.90
6581;DHT22;3324;50.796;7.228;2022-07-03T06:18:41;19.60;99.90
6581;DHT22;3324;50.796;7.228;2022-07-03T06:21:06;19.70;99.90
6581;DHT22;3324;50.796;7.228;2022-07-03T06:23:32;19.80;99.90
6581;DHT22;3324;50.796;7.228;2022-07-03T06:25:57;20.00;99.90
6581;DHT22;3324;50.796;7.228;2022-07-03T06:28:23;20.20;99.90
6581;DHT22;3324;50.796;7.228;2022-07-03T06:30:49;20.30;99.90
6581;DHT22;3324;50.796;7.228;2022-07-03T06:33:14;20.40;99.90
6581;DHT22;3324;50.796;7.228;2022-07-03T06:35:40;20.50;99.90
6581;DHT22;3324;50.796;7.228;2022-07-03T06:38:06;20.60;99.90
6581;DHT22;3324;50.796;7.228;2022-07-03T06:40:31;20.80;99.90
6581;DHT22;3324;50.796;7.228;2022-07-03T06:42:57;20.80;99.90
6581;DHT22;3324;50.796;7.228;2022-07-03T06:45:23;21.00;99.90
6581;DHT22;3324;50.796;7.228;2022-07-03T06:47:48;21.10;99.90
6581;DHT22;3324;50.796;7.228;2022-07-03T06:50:14;21.20;99.90
6581;DHT22;3324;50.796;7.228;2022-07-03T06:52:39;21.30;99.90
6581;DHT22;3324;50.796;7.228;2022-07-03T06:55:05;21.40;99.90
6581;DHT22;3324;50.796;7.228;2022-07-03T06:57:31;21.50;99.90
6581;DHT22;3324;50.796;7.228;2022-07-03T06:59:57;21.60;99.90
6581;DHT22;3324;50.796;7.228;2022-07-03T07:02:23;21.70;99.90
6581;DHT22;3324;50.796;7.228;2022-07-03T07:04:48;21.80;99.90
6581;DHT22;3324;50.796;7.228;2022-07-03T07:07:14;21.90;99.90
6581;DHT22;3324;50.796;7.228;2022-07-03T07:09:40;22.00;99.90
6581;DHT22;3324;50.796;7.228;2022-07-03T07:12:06;22.10;99.90
6581;DHT22;3324;50.796;7.228;2022-07-03T07:14:31;22.20;99.90
6581;DHT22;3324;50.796;7.228;2022-07-03T07:16:57;22.30;99.90
6581;DHT22;3324;50.796;7.228;2022-07-03T07:19:23;22.50;99.90
6581;DHT22;3324;50.796;7.228;2022-07-03T07:21:48;22.50;99.90
6581;DHT22;3324;50.796;7.228;2022-07-03T07:24:14;22.60;99.90
6581;DHT22;3324;50.796;7.228;2022-07-03T07:26:39;22.70;99.90
6581;DHT22;3324;50.796;7.228;2022-07-03T07:29:05;22.70;99.90
6581;DHT22;3324;50.796;7.228;2022-07-03T07:31:31;22.80;99.90
6581;DHT22;3324;50.796;7.228;2022-07-03T07:33:56;23.00;99.90
6581;DHT22;3324;50.796;7.228;2022-07-03T07:36:22;23.00;99.90
6581;DHT22;3324;50.796;7.228;2022-07-03T07:38:47;23.20;99.90
6581;DHT22;3324;50.796;7.228;2022-07-03T07:41:13;23.30;99.90
6581;DHT22;3324;50.796;7.228;2022-07-03T07:43:39;23.50;99.90
6581;DHT22;3324;50.796;7.228;2022-07-03T07:46:04;23.60;99.90
6581;DHT22;3324;50.796;7.228;2022-07-03T07:48:30;23.60;99.90
6581;DHT22;3324;50.796;7.228;2022-07-03T07:50:56;23.70;99.90
6581;DHT22;3324;50.796;7.228;2022-07-03T07:53:22;23.90;99.90
6581;DHT22;3324;50.796;7.228;2022-07-03T07:55:47;23.90;99.90
6581;DHT22;3324;50.796;7.228;2022-07-03T07:58:13;24.00;99.90
6581;DHT22;3324;50.796;7.228;2022-07-03T08:00:39;24.20;99.90
6581;DHT22;3324;50.796;7.228;2022-07-03T08:03:24;24.30;99.90
6581;DHT22;3324;50.796;7.228;2022-07-03T08:06:09;24.40;99.90
6581;DHT22;3324;50.796;7.228;2022-07-03T08:08:35;24.60;99.90
6581;DHT22;3324;50.796;7.228;2022-07-03T08:11:01;24.70;99.90
6581;DHT22;3324;50.796;7.228;2022-07-03T08:13:26;24.70;99.90
6581;DHT22;3324;50.796;7.228;2022-07-03T08:15:52;24.80;99.90
6581;DHT22;3324;50.796;7.228;2022-07-03T08:18:18;24.90;99.90
6581;DHT22;3324;50.796;7.228;2022-07-03T08:20:44;24.90;99.90
6581;DHT22;3324;50.796;7.228;2022-07-03T08:23:09;25.10;99.90
6581;DHT22;3324;50.796;7.228;2022-07-03T08:25:35;25.10;99.90
6581;DHT22;3324;50.796;7.228;2022-07-03T08:28:01;25.10;99.90
6581;DHT22;3324;50.796;7.228;2022-07-03T08:30:27;25.20;99.90
6581;DHT22;3324;50.796;7.228;2022-07-03T08:32:55;25.40;99.90
6581;DHT22;3324;50.796;7.228;2022-07-03T08:35:21;25.50;99.90
6581;DHT22;3324;50.796;7.228;2022-07-03T08:37:47;25.60;99.90
6581;DHT22;3324;50.796;7.228;2022-07-03T08:40:14;25.60;99.90
6581;DHT22;3324;50.796;7.228;2022-07-03T08:42:54;25.50;99.90
6581;DHT22;3324;50.796;7.228;2022-07-03T08:45:21;25.60;99.90
6581;DHT22;3324;50.796;7.228;2022-07-03T08:47:49;25.80;99.90
6581;DHT22;3324;50.796;7.228;2022-07-03T08:50:19;25.80;99.90
6581;DHT22;3324;50.796;7.228;2022-07-03T08:52:46;25.80;99.90
6581;DHT22;3324;50.796;7.228;2022-07-03T08:55:13;26.10;99.90
6581;DHT22;3324;50.796;7.228;2022-07-03T08:57:41;26.20;99.90
6581;DHT22;3324;50.796;7.228;2022-07-03T09:00:11;26.40;99.90
6581;DHT22;3324;50.796;7.228;2022-07-03T09:02:40;26.70;99.90
6581;DHT22;3324;50.796;7.228;2022-07-03T09:05:10;26.80;99.90
6581;DHT22;3324;50.796;7.228;2022-07-03T09:07:38;26.90;99.90
6581;DHT22;3324;50.796;7.228;2022-07-03T09:10:06;27.00;99.90
6581;DHT22;3324;50.796;7.228;2022-07-03T09:12:32;27.10;99.90
6581;DHT22;3324;50.796;7.228;2022-07-03T09:14:59;27.20;99.90
6581;DHT22;3324;50.796;7.228;2022-07-03T09:17:26;27.30;99.80
6581;DHT22;3324;50.796;7.228;2022-07-03T09:19:52;27.50;99.50
6581;DHT22;3324;50.796;7.228;2022-07-03T09:22:29;27.60;99.00
6581;DHT22;3324;50.796;7.228;2022-07-03T09:25:04;27.70;99.40
6581;DHT22;3324;50.796;7.228;2022-07-03T09:27:30;27.90;97.70
6581;DHT22;3324;50.796;7.228;2022-07-03T09:30:00;28.00;99.80
6581;DHT22;3324;50.796;7.228;2022-07-03T09:32:31;28.10;98.40
6581;DHT22;3324;50.796;7.228;2022-07-03T09:35:16;28.00;97.50
6581;DHT22;3324;50.796;7.228;2022-07-03T09:37:59;28.10;96.30
6581;DHT22;3324;50.796;7.228;2022-07-03T09:40:27;28.10;99.40
6581;DHT22;3324;50.796;7.228;2022-07-03T09:43:07;28.20;98.10
6581;DHT22;3324;50.796;7.228;2022-07-03T09:48:43;28.50;96.70
6581;DHT22;3324;50.796;7.228;2022-07-03T09:59:08;29.00;95.30
6581;DHT22;3324;50.796;7.228;2022-07-03T10:01:36;29.10;95.00
6581;DHT22;3324;50.796;7.228;2022-07-03T10:04:28;29.10;94.80
6581;DHT22;3324;50.796;7.228;2022-07-03T10:06:55;29.20;93.70
6581;DHT22;3324;50.796;7.228;2022-07-03T10:11:51;29.10;93.20
6581;DHT22;3324;50.796;7.228;2022-07-03T10:14:20;29.10;92.70
6581;DHT22;3324;50.796;7.228;2022-07-03T10:16:46;29.20;92.10
6581;DHT22;3324;50.796;7.228;2022-07-03T10:19:32;29.20;93.50
6581;DHT22;3324;50.796;7.228;2022-07-03T10:22:08;29.30;93.60
6581;DHT22;3324;50.796;7.228;2022-07-03T10:24:36;29.30;92.80
6581;DHT22;3324;50.796;7.228;2022-07-03T10:27:01;29.50;92.90
6581;DHT22;3324;50.796;7.228;2022-07-03T10:29:28;29.60;91.80
6581;DHT22;3324;50.796;7.228;2022-07-03T10:31:54;29.80;93.90
6581;DHT22;3324;50.796;7.228;2022-07-03T10:34:22;29.90;92.50
6581;DHT22;3324;50.796;7.228;2022-07-03T10:36:52;30.00;92.50
6581;DHT22;3324;50.796;7.228;2022-07-03T10:41:54;30.20;91.40
6581;DHT22;3324;50.796;7.228;2022-07-03T10:45:02;30.10;91.20
6581;DHT22;3324;50.796;7.228;2022-07-03T10:47:47;30.30;91.90
6581;DHT22;3324;50.796;7.228;2022-07-03T10:50:23;30.40;90.90
6581;DHT22;3324;50.796;7.228;2022-07-03T10:52:49;30.40;90.70
6581;DHT22;3324;50.796;7.228;2022-07-03T10:55:16;30.30;90.40
6581;DHT22;3324;50.796;7.228;2022-07-03T10:57:43;30.40;88.70
6581;DHT22;3324;50.796;7.228;2022-07-03T11:00:17;30.60;90.20
6581;DHT22;3324;50.796;7.228;2022-07-03T11:02:46;30.60;87.80
6581;DHT22;3324;50.796;7.228;2022-07-03T11:05:17;30.60;85.70
6581;DHT22;3324;50.796;7.228;2022-07-03T11:13:00;30.80;87.80
6581;DHT22;3324;50.796;7.228;2022-07-03T11:15:33;30.90;86.80
6581;DHT22;3324;50.796;7.228;2022-07-03T11:25:54;31.20;80.70
6581;DHT22;3324;50.796;7.228;2022-07-03T11:33:45;30.50;81.80
6581;DHT22;3324;50.796;7.228;2022-07-03T11:36:11;30.40;84.90
6581;DHT22;3324;50.796;7.228;2022-07-03T11:39:02;30.50;80.40
6581;DHT22;3324;50.796;7.228;2022-07-03T11:41:30;30.60;78.80
6581;DHT22;3324;50.796;7.228;2022-07-03T11:44:07;30.70;78.00
6581;DHT22;3324;50.796;7.228;2022-07-03T11:46:34;30.70;77.40
6581;DHT22;3324;50.796;7.228;2022-07-03T11:51:37;30.60;81.10
6581;DHT22;3324;50.796;7.228;2022-07-03T11:54:04;30.60;80.10
6581;DHT22;3324;50.796;7.228;2022-07-03T11:56:30;30.70;78.60
6581;DHT22;3324;50.796;7.228;2022-07-03T11:59:05;30.90;78.70
6581;DHT22;3324;50.796;7.228;2022-07-03T12:01:35;31.00;77.70
6581;DHT22;3324;50.796;7.228;2022-07-03T12:04:09;31.00;78.80
6581;DHT22;3324;50.796;7.228;2022-07-03T12:06:40;31.20;81.60
6581;DHT22;3324;50.796;7.228;2022-07-03T12:09:27;31.00;79.20
6581;DHT22;3324;50.796;7.228;2022-07-03T12:12:09;30.60;82.80
6581;DHT22;3324;50.796;7.228;2022-07-03T12:17:07;30.20;80.10
6581;DHT22;3324;50.796;7.228;2022-07-03T12:19:33;30.20;81.10
6581;DHT22;3324;50.796;7.228;2022-07-03T12:22:00;30.00;81.50
6581;DHT22;3324;50.796;7.228;2022-07-03T12:24:26;30.20;83.50
6581;DHT22;3324;50.796;7.228;2022-07-03T12:26:52;30.10;86.40
6581;DHT22;3324;50.796;7.228;2022-07-03T12:29:18;29.90;79.40
6581;DHT22;3324;50.796;7.228;2022-07-03T12:31:46;29.80;79.70
6581;DHT22;3324;50.796;7.228;2022-07-03T12:34:13;29.70;82.70
6581;DHT22;3324;50.796;7.228;2022-07-03T12:36:39;29.90;83.70
6581;DHT22;3324;50.796;7.228;2022-07-03T12:39:05;30.00;85.30
6581;DHT22;3324;50.796;7.228;2022-07-03T12:41:32;30.20;81.10
6581;DHT22;3324;50.796;7.228;2022-07-03T12:43:59;30.50;82.30
6581;DHT22;3324;50.796;7.228;2022-07-03T12:46:36;30.40;82.20
6581;DHT22;3324;50.796;7.228;2022-07-03T12:49:11;30.00;81.40
6581;DHT22;3324;50.796;7.228;2022-07-03T12:51:48;29.70;83.90
6581;DHT22;3324;50.796;7.228;2022-07-03T12:54:21;29.50;84.70
6581;DHT22;3324;50.796;7.228;2022-07-03T12:57:05;29.70;83.00
6581;DHT22;3324;50.796;7.228;2022-07-03T13:02:36;30.10;78.20
6581;DHT22;3324;50.796;7.228;2022-07-03T13:05:21;30.10;79.30
6581;DHT22;3324;50.796;7.228;2022-07-03T13:07:52;30.30;81.00
6581;DHT22;3324;50.796;7.228;2022-07-03T13:10:19;30.50;81.60
6581;DHT22;3324;50.796;7.228;2022-07-03T13:12:56;30.60;80.60
6581;DHT22;3324;50.796;7.228;2022-07-03T13:15:29;30.40;79.40
6581;DHT22;3324;50.796;7.228;2022-07-03T13:20:27;29.80;81.70
6581;DHT22;3324;50.796;7.228;2022-07-03T13:22:58;29.60;84.40
6581;DHT22;3324;50.796;7.228;2022-07-03T13:25:25;29.50;84.10
6581;DHT22;3324;50.796;7.228;2022-07-03T13:27:51;29.30;83.80
6581;DHT22;3324;50.796;7.228;2022-07-03T13:30:18;29.10;87.30
6581;DHT22;3324;50.796;7.228;2022-07-03T13:32:44;29.00;85.60
6581;DHT22;3324;50.796;7.228;2022-07-03T13:35:11;29.00;87.30
6581;DHT22;3324;50.796;7.228;2022-07-03T13:37:36;28.70;87.50
6581;DHT22;3324;50.796;7.228;2022-07-03T13:40:04;28.90;87.50
6581;DHT22;3324;50.796;7.228;2022-07-03T13:42:30;29.20;87.60
6581;DHT22;3324;50.796;7.228;2022-07-03T13:44:56;29.40;88.50
6581;DHT22;3324;50.796;7.228;2022-07-03T13:47:22;29.50;87.90
6581;DHT22;3324;50.796;7.228;2022-07-03T13:49:48;29.60;89.50
6581;DHT22;3324;50.796;7.228;2022-07-03T13:52:14;29.60;87.80
6581;DHT22;3324;50.796;7.228;2022-07-03T13:54:39;29.60;88.30
6581;DHT22;3324;50.796;7.228;2022-07-03T13:57:05;29.60;85.00
6581;DHT22;3324;50.796;7.228;2022-07-03T13:59:31;29.60;88.50
6581;DHT22;3324;50.796;7.228;2022-07-03T14:02:00;29.60;89.50
6581;DHT22;3324;50.796;7.228;2022-07-03T14:04:26;29.50;86.80
6581;DHT22;3324;50.796;7.228;2022-07-03T14:06:52;29.50;85.30
6581;DHT22;3324;50.796;7.228;2022-07-03T14:09:18;29.40;88.00
6581;DHT22;3324;50.796;7.228;2022-07-03T14:11:43;29.50;89.30
6581;DHT22;3324;50.796;7.228;2022-07-03T14:14:10;29.40;88.70
6581;DHT22;3324;50.796;7.228;2022-07-03T14:16:36;29.40;87.80
6581;DHT22;3324;50.796;7.228;2022-07-03T14:19:03;29.20;90.50
6581;DHT22;3324;50.796;7.228;2022-07-03T14:21:29;29.20;89.00
6581;DHT22;3324;50.796;7.228;2022-07-03T14:23:55;29.10;90.80
6581;DHT22;3324;50.796;7.228;2022-07-03T14:26:20;29.10;89.90
6581;DHT22;3324;50.796;7.228;2022-07-03T14:29:06;29.10;90.30
6581;DHT22;3324;50.796;7.228;2022-07-03T14:31:53;29.10;90.20
6581;DHT22;3324;50.796;7.228;2022-07-03T14:34:38;29.20;89.80
6581;DHT22;3324;50.796;7.228;2022-07-03T14:37:04;29.10;86.00
6581;DHT22;3324;50.796;7.228;2022-07-03T14:39:30;29.10;88.50
6581;DHT22;3324;50.796;7.228;2022-07-03T14:41:55;29.00;88.10
6581;DHT22;3324;50.796;7.228;2022-07-03T14:44:21;29.00;87.80
6581;DHT22;3324;50.796;7.228;2022-07-03T14:46:51;28.90;88.50
6581;DHT22;3324;50.796;7.228;2022-07-03T14:49:17;28.70;89.80
6581;DHT22;3324;50.796;7.228;2022-07-03T14:51:43;28.60;89.40
6581;DHT22;3324;50.796;7.228;2022-07-03T14:54:09;28.50;88.40
6581;DHT22;3324;50.796;7.228;2022-07-03T14:56:39;28.40;90.00
6581;DHT22;3324;50.796;7.228;2022-07-03T14:59:08;28.40;90.10
6581;DHT22;3324;50.796;7.228;2022-07-03T15:01:36;28.40;91.00
6581;DHT22;3324;50.796;7.228;2022-07-03T15:04:03;28.30;90.40
6581;DHT22;3324;50.796;7.228;2022-07-03T15:06:29;28.20;90.60
6581;DHT22;3324;50.796;7.228;2022-07-03T15:09:02;28.20;90.40
6581;DHT22;3324;50.796;7.228;2022-07-03T15:11:39;28.20;91.10
6581;DHT22;3324;50.796;7.228;2022-07-03T15:14:25;28.20;90.80
6581;DHT22;3324;50.796;7.228;2022-07-03T15:16:53;28.10;90.40
6581;DHT22;3324;50.796;7.228;2022-07-03T15:19:19;28.20;91.10
6581;DHT22;3324;50.796;7.228;2022-07-03T15:21:47;28.20;90.70
6581;DHT22;3324;50.796;7.228;2022-07-03T15:24:14;28.20;90.80
6581;DHT22;3324;50.796;7.228;2022-07-03T15:26:41;28.10;90.00
6581;DHT22;3324;50.796;7.228;2022-07-03T15:29:09;28.20;90.80
6581;DHT22;3324;50.796;7.228;2022-07-03T15:31:35;28.00;90.50
6581;DHT22;3324;50.796;7.228;2022-07-03T15:34:05;28.00;91.30
6581;DHT22;3324;50.796;7.228;2022-07-03T15:36:58;28.00;91.60
6581;DHT22;3324;50.796;7.228;2022-07-03T15:39:37;27.90;90.90
6581;DHT22;3324;50.796;7.228;2022-07-03T15:42:13;27.90;91.50
6581;DHT22;3324;50.796;7.228;2022-07-03T15:45:06;27.90;90.90
6581;DHT22;3324;50.796;7.228;2022-07-03T15:47:53;27.70;91.10
6581;DHT22;3324;50.796;7.228;2022-07-03T15:52:55;27.50;92.50
6581;DHT22;3324;50.796;7.228;2022-07-03T15:55:22;27.40;91.30
6581;DHT22;3324;50.796;7.228;2022-07-03T15:57:57;27.50;91.60
6581;DHT22;3324;50.796;7.228;2022-07-03T16:00:23;27.40;92.60
6581;DHT22;3324;50.796;7.228;2022-07-03T16:03:09;27.40;91.90
6581;DHT22;3324;50.796;7.228;2022-07-03T16:05:36;27.30;91.40
6581;DHT22;3324;50.796;7.228;2022-07-03T16:08:09;27.20;93.10
6581;DHT22;3324;50.796;7.228;2022-07-03T16:10:36;27.30;92.00
6581;DHT22;3324;50.796;7.228;2022-07-03T16:13:03;27.30;93.40
6581;DHT22;3324;50.796;7.228;2022-07-03T16:15:38;27.10;94.00
6581;DHT22;3324;50.796;7.228;2022-07-03T16:18:05;27.10;92.90
6581;DHT22;3324;50.796;7.228;2022-07-03T16:20:32;26.90;94.60
6581;DHT22;3324;50.796;7.228;2022-07-03T16:23:04;26.80;94.20
6581;DHT22;3324;50.796;7.228;2022-07-03T16:25:35;26.70;93.60
6581;DHT22;3324;50.796;7.228;2022-07-03T16:28:03;26.60;93.90
6581;DHT22;3324;50.796;7.228;2022-07-03T16:30:30;26.70;94.00
6581;DHT22;3324;50.796;7.228;2022-07-03T16:32:57;26.60;94.40
6581;DHT22;3324;50.796;7.228;2022-07-03T16:35:45;26.60;94.40
6581;DHT22;3324;50.796;7.228;2022-07-03T16:38:11;26.50;93.40
6581;DHT22;3324;50.796;7.228;2022-07-03T16:40:38;26.50;93.20
6581;DHT22;3324;50.796;7.228;2022-07-03T16:43:05;26.40;94.50
6581;DHT22;3324;50.796;7.228;2022-07-03T16:45:34;26.40;92.90
6581;DHT22;3324;50.796;7.228;2022-07-03T16:48:11;26.30;94.30
6581;DHT22;3324;50.796;7.228;2022-07-03T16:50:47;26.30;94.20
6581;DHT22;3324;50.796;7.228;2022-07-03T16:53:14;26.30;93.30
6581;DHT22;3324;50.796;7.228;2022-07-03T16:55:41;26.20;94.60
6581;DHT22;3324;50.796;7.228;2022-07-03T16:58:07;26.20;93.00
6581;DHT22;3324;50.796;7.228;2022-07-03T17:00:34;26.20;93.40
6581;DHT22;3324;50.796;7.228;2022-07-03T17:03:01;26.20;94.30
6581;DHT22;3324;50.796;7.228;2022-07-03T17:05:29;26.10;94.00
6581;DHT22;3324;50.796;7.228;2022-07-03T17:07:55;26.10;93.10
6581;DHT22;3324;50.796;7.228;2022-07-03T17:10:22;26.10;93.30
6581;DHT22;3324;50.796;7.228;2022-07-03T17:12:51;26.00;93.60
6581;DHT22;3324;50.796;7.228;2022-07-03T17:15:19;26.00;93.50
6581;DHT22;3324;50.796;7.228;2022-07-03T17:17:58;26.00;94.30
6581;DHT22;3324;50.796;7.228;2022-07-03T17:20:28;25.90;94.50
6581;DHT22;3324;50.796;7.228;2022-07-03T17:23:09;25.70;94.90
6581;DHT22;3324;50.796;7.228;2022-07-03T17:25:51;25.60;94.20
6581;DHT22;3324;50.796;7.228;2022-07-03T17:28:20;25.50;95.70
6581;DHT22;3324;50.796;7.228;2022-07-03T17:30:58;25.50;95.00